Time;durP1;ratioP1;P1;durP2;ratioP2;P2;SDS_P1;SDS_P2;PMS_P1;PMS_P2;Temp;Humidity;BMP_temperature;BMP_pressure;BME280_temperature;BME280_humidity;BME280_pressure;Samples;Min_cycle;Max_cycle;Signal;HPM_P1;HPM_P2
2022/03/11 00:01:14;;;;;;;7.03;2.72;;;24.10;66.30;;;;;;5138510;27;20068;-70
2022/03/11 00:03:40;;;;;;;8.93;2.85;;;24.10;66.30;;;;;;5142140;27;20019;-70
2022/03/11 00:06:07;;;;;;;9.88;2.78;;;24.10;66.30;;;;;;5137183;27;20050;-70
2022/03/11 00:08:33;;;;;;;10.48;2.80;;;24.10;66.30;;;;;;5142795;27;20453;-70
2022/03/11 00:11:00;;;;;;;10.75;3.03;;;24.10;66.30;;;;;;5139271;27;20023;-70
2022/03/11 00:13:27;;;;;;;10.32;3.28;;;24.00;66.30;;;;;;5138765;27;20026;-71
2022/03/11 00:15:53;;;;;;;14.02;4.43;;;24.00;66.30;;;;;;5137721;27;20125;-70
2022/03/11 00:18:20;;;;;;;25.90;4.45;;;24.00;66.30;;;;;;5139043;27;20068;-71
2022/03/11 00:20:47;;;;;;;25.75;4.28;;;24.10;67.10;;;;;;5138549;27;20021;-70
2022/03/11 00:23:13;;;;;;;19.58;4.10;;;24.10;67.00;;;;;;5139209;27;20320;-71
2022/03/11 00:25:42;;;;;;;15.80;5.13;;;24.10;66.70;;;;;;5142352;27;20015;-71
2022/03/11 00:28:09;;;;;;;11.73;5.50;;;24.00;66.50;;;;;;5139368;27;20026;-70
2022/03/11 00:30:35;;;;;;;14.80;4.95;;;24.00;66.50;;;;;;5135922;27;20111;-71
2022/03/11 00:33:02;;;;;;;9.93;4.65;;;24.00;66.50;;;;;;5142762;27;20098;-70
2022/03/11 00:35:29;;;;;;;12.65;5.07;;;24.00;66.60;;;;;;5136504;27;20035;-71
2022/03/11 00:37:55;;;;;;;12.13;4.70;;;24.00;66.70;;;;;;5138667;27;20026;-71
2022/03/11 00:40:22;;;;;;;11.02;4.30;;;24.00;66.80;;;;;;5137796;27;20019;-70
2022/03/11 00:42:48;;;;;;;20.67;4.20;;;23.90;66.70;;;;;;5136177;27;20026;-70
2022/03/11 00:45:15;;;;;;;14.88;4.22;;;23.90;66.90;;;;;;5146912;27;20025;-71
2022/03/11 00:47:41;;;;;;;16.98;4.35;;;23.90;66.90;;;;;;5133688;27;20696;-71
2022/03/11 00:50:08;;;;;;;15.93;3.67;;;23.90;67.10;;;;;;5142628;27;20415;-71
2022/03/11 00:52:34;;;;;;;22.63;5.05;;;23.90;67.10;;;;;;5138521;27;20020;-71
2022/03/11 00:55:03;;;;;;;22.08;3.72;;;23.80;67.10;;;;;;5138734;27;20394;-71
2022/03/11 00:57:29;;;;;;;14.13;3.83;;;23.80;67.50;;;;;;5138593;27;20114;-71
2022/03/11 00:59:56;;;;;;;10.48;3.03;;;23.80;67.40;;;;;;5137623;27;20014;-70
2022/03/11 01:02:23;;;;;;;12.23;4.43;;;23.80;67.40;;;;;;5121421;27;20072;-71
2022/03/11 01:04:50;;;;;;;12.88;3.03;;;23.80;67.40;;;;;;5134385;27;20030;-71
2022/03/11 01:07:17;;;;;;;6.90;3.30;;;23.80;67.40;;;;;;5137360;27;20072;-71
2022/03/11 01:09:43;;;;;;;11.35;2.95;;;23.70;67.40;;;;;;5138358;27;20011;-71
2022/03/11 01:12:10;;;;;;;11.50;3.92;;;23.70;67.40;;;;;;5141498;27;20026;-71
2022/03/11 01:14:36;;;;;;;10.23;2.70;;;23.80;67.50;;;;;;5137223;27;20076;-71
2022/03/11 01:17:03;;;;;;;12.82;2.97;;;23.70;67.50;;;;;;5136828;27;20510;-71
2022/03/11 01:19:30;;;;;;;5.65;3.35;;;23.70;67.60;;;;;;5137736;27;20110;-71
2022/03/11 01:21:57;;;;;;;8.38;2.75;;;23.70;67.60;;;;;;5132703;27;20512;-71
2022/03/11 01:24:23;;;;;;;14.40;3.88;;;23.70;67.60;;;;;;5134292;27;20015;-71
2022/03/11 01:26:50;;;;;;;11.98;3.80;;;23.70;67.60;;;;;;5139144;27;20455;-71
2022/03/11 01:29:16;;;;;;;13.32;3.92;;;23.70;67.70;;;;;;5137853;27;20572;-71
2022/03/11 01:31:43;;;;;;;7.65;2.53;;;23.60;67.70;;;;;;5138229;27;20088;-71
2022/03/11 01:34:09;;;;;;;12.48;3.47;;;23.60;68.40;;;;;;5137333;27;20029;-71
2022/03/11 01:36:36;;;;;;;11.60;3.72;;;23.60;67.80;;;;;;5133012;27;20458;-71
2022/03/11 01:39:02;;;;;;;10.40;2.92;;;23.60;67.80;;;;;;5137672;27;20019;-71
2022/03/11 01:41:29;;;;;;;8.70;3.55;;;23.60;67.90;;;;;;5135791;27;20087;-72
2022/03/11 01:44:00;;;;;;;10.07;3.35;;;23.60;67.90;;;;;;5134375;27;20050;-71
2022/03/11 01:46:28;;;;;;;7.47;3.00;;;23.60;67.90;;;;;;5119606;27;20046;-71
2022/03/11 01:48:56;;;;;;;12.48;3.05;;;23.60;68.00;;;;;;5135601;27;20046;-70
2022/03/11 01:51:23;;;;;;;7.38;2.67;;;23.60;68.10;;;;;;5138438;27;20030;-70
2022/03/11 01:53:50;;;;;;;9.02;2.75;;;23.60;68.10;;;;;;5135085;27;20014;-70
2022/03/11 01:56:17;;;;;;;9.23;2.45;;;23.60;68.10;;;;;;5139991;27;20034;-70
2022/03/11 01:58:46;;;;;;;7.40;2.45;;;23.60;68.20;;;;;;5137089;27;20038;-69
2022/03/11 02:01:12;;;;;;;15.80;4.05;;;23.50;68.20;;;;;;5135070;27;20011;-70
2022/03/11 02:03:39;;;;;;;7.07;2.47;;;23.60;68.30;;;;;;5136910;27;20091;-70
2022/03/11 02:06:08;;;;;;;13.63;3.63;;;23.60;68.40;;;;;;5137547;27;20019;-70
2022/03/11 02:08:35;;;;;;;10.65;3.47;;;23.50;68.50;;;;;;5138450;27;20053;-70
2022/03/11 02:11:03;;;;;;;11.15;3.35;;;23.50;68.50;;;;;;5134480;27;20019;-70
2022/03/11 02:14:01;;;;;;;9.63;3.25;;;23.50;68.70;;;;;;5138985;27;20019;-70
2022/03/11 02:16:30;;;;;;;9.55;3.22;;;23.50;68.70;;;;;;5141493;27;20064;-70
2022/03/11 02:18:58;;;;;;;9.23;3.08;;;23.50;68.80;;;;;;5115213;27;20493;-70
2022/03/11 02:21:28;;;;;;;5.95;2.50;;;23.50;68.80;;;;;;5142913;27;20138;-71
2022/03/11 02:23:59;;;;;;;10.77;3.25;;;23.50;68.80;;;;;;5134936;27;20157;-70
2022/03/11 02:26:29;;;;;;;9.73;3.60;;;23.50;68.90;;;;;;5133662;27;20039;-70
2022/03/11 02:28:57;;;;;;;10.27;3.05;;;23.50;69.00;;;;;;5135793;27;20086;-70
2022/03/11 02:31:28;;;;;;;11.65;3.42;;;23.50;69.00;;;;;;5132032;27;20022;-70
2022/03/11 02:33:54;;;;;;;10.02;3.50;;;23.50;69.00;;;;;;5135612;27;20027;-70
2022/03/11 02:36:21;;;;;;;7.72;3.33;;;23.50;69.10;;;;;;5137980;27;20023;-70
2022/03/11 02:38:48;;;;;;;7.53;3.10;;;23.40;69.10;;;;;;5134992;27;20064;-70
2022/03/11 02:41:15;;;;;;;12.60;4.65;;;23.40;69.20;;;;;;5133588;27;20469;-70
2022/03/11 02:43:42;;;;;;;12.13;4.18;;;23.40;69.20;;;;;;5137321;27;20465;-70
2022/03/11 02:46:15;;;;;;;39.60;7.47;;;23.40;69.20;;;;;;5136218;27;20470;-69
2022/03/11 02:48:42;;;;;;;44.70;13.77;;;23.40;69.30;;;;;;5136777;27;20383;-70
2022/03/11 02:51:09;;;;;;;56.60;22.60;;;23.40;70.00;;;;;;5138326;27;20473;-70
2022/03/11 02:53:40;;;;;;;41.10;15.32;;;23.40;70.40;;;;;;5139193;27;20022;-70
2022/03/11 02:56:08;;;;;;;28.15;11.75;;;23.40;70.60;;;;;;5136347;27;20027;-70
2022/03/11 02:58:37;;;;;;;23.48;9.88;;;23.40;70.20;;;;;;5133569;27;20472;-70
2022/03/11 03:01:04;;;;;;;19.98;10.40;;;23.40;69.80;;;;;;5135413;27;20106;-70
2022/03/11 03:03:30;;;;;;;16.17;7.10;;;23.40;69.50;;;;;;5144272;27;20023;-71
2022/03/11 03:05:57;;;;;;;19.35;6.72;;;23.40;69.40;;;;;;5116710;27;20473;-71
2022/03/11 03:08:23;;;;;;;12.57;5.72;;;23.40;69.30;;;;;;5143588;27;20489;-71
2022/03/11 03:10:50;;;;;;;15.40;5.90;;;23.30;69.20;;;;;;5143858;27;20590;-70
2022/03/11 03:13:18;;;;;;;18.10;6.75;;;23.30;69.10;;;;;;5139040;27;20023;-70
2022/03/11 03:15:44;;;;;;;25.50;8.77;;;23.30;69.10;;;;;;5138263;27;20034;-71
2022/03/11 03:18:11;;;;;;;25.33;7.97;;;23.30;69.10;;;;;;5143399;27;20023;-71
2022/03/11 03:20:37;;;;;;;19.73;6.05;;;23.30;69.20;;;;;;5142818;27;20018;-71
2022/03/11 03:23:04;;;;;;;16.67;6.75;;;23.30;69.30;;;;;;5142400;27;20768;-70
2022/03/11 03:25:30;;;;;;;14.18;6.15;;;23.20;69.20;;;;;;5138998;27;20019;-70
2022/03/11 03:27:57;;;;;;;16.33;6.40;;;23.30;69.30;;;;;;5139868;27;20068;-70
2022/03/11 03:30:23;;;;;;;12.90;5.18;;;23.20;69.20;;;;;;5139154;27;20019;-71
2022/03/11 03:32:50;;;;;;;15.43;7.82;;;23.20;69.20;;;;;;5138034;27;20022;-70
2022/03/11 03:35:16;;;;;;;50.85;27.05;;;23.20;69.40;;;;;;5138505;27;20097;-70
2022/03/11 03:37:43;;;;;;;41.05;18.33;;;23.20;69.50;;;;;;5136584;27;20015;-70
2022/03/11 03:40:10;;;;;;;25.83;12.98;;;23.20;69.50;;;;;;5139795;27;20023;-70
2022/03/11 03:42:37;;;;;;;17.17;7.30;;;23.20;69.50;;;;;;5141753;27;20022;-70
2022/03/11 03:45:06;;;;;;;12.95;5.80;;;23.20;69.60;;;;;;5134632;27;20015;-70
2022/03/11 03:47:32;;;;;;;18.02;5.38;;;23.20;70.40;;;;;;5140204;27;20031;-70
2022/03/11 03:49:59;;;;;;;22.40;6.03;;;23.20;69.80;;;;;;5136034;27;20035;-70
2022/03/11 03:52:27;;;;;;;17.13;4.80;;;23.20;69.70;;;;;;5144866;27;20425;-70
2022/03/11 03:54:54;;;;;;;34.50;5.20;;;23.20;69.60;;;;;;5134375;27;20027;-72
2022/03/11 03:57:21;;;;;;;20.83;5.82;;;23.20;69.60;;;;;;5135071;27;20027;-72
2022/03/11 03:59:47;;;;;;;17.10;5.25;;;23.20;69.70;;;;;;5137242;27;20023;-70
2022/03/11 04:02:13;;;;;;;9.70;4.50;;;23.20;69.60;;;;;;5135292;27;20019;-70
2022/03/11 07:27:08;;;;;;;7.30;2.80;;;24.40;71.60;;;;;;6143585;22;3407142;-75
2022/03/11 07:29:35;;;;;;;5.22;1.90;;;24.40;70.90;;;;;;6243509;22;20323;-75
2022/03/11 07:32:02;;;;;;;7.03;2.33;;;24.50;70.70;;;;;;6243053;22;19996;-75
2022/03/11 07:34:28;;;;;;;4.95;1.90;;;24.60;70.30;;;;;;6243882;22;20431;-75
2022/03/11 07:36:55;;;;;;;4.90;2.17;;;24.70;69.70;;;;;;6243365;22;20000;-75
2022/03/11 07:39:21;;;;;;;6.22;2.35;;;24.70;68.50;;;;;;6243765;22;20003;-75
2022/03/11 07:41:49;;;;;;;5.50;1.98;;;24.80;68.40;;;;;;6242496;22;20000;-74
2022/03/11 07:44:16;;;;;;;4.53;1.70;;;24.80;67.30;;;;;;6244063;22;19996;-75
2022/03/11 07:46:44;;;;;;;2.75;1.80;;;24.90;66.50;;;;;;6243300;22;20023;-75
2022/03/11 07:49:11;;;;;;;13.18;3.03;;;24.90;65.70;;;;;;6243074;22;20075;-75
2022/03/11 07:51:39;;;;;;;6.55;2.55;;;25.00;65.80;;;;;;6243738;22;20004;-74
2022/03/11 07:54:05;;;;;;;11.93;2.95;;;25.10;65.60;;;;;;6242259;22;20066;-74
2022/03/11 07:56:32;;;;;;;10.05;2.50;;;25.10;65.20;;;;;;6243663;22;20327;-75
2022/03/11 07:58:59;;;;;;;11.88;2.65;;;25.20;65.40;;;;;;6242304;22;20431;-75
2022/03/11 08:01:26;;;;;;;5.63;3.13;;;25.30;65.00;;;;;;6243611;22;20000;-75
2022/03/11 08:03:53;;;;;;;6.68;2.67;;;25.30;64.50;;;;;;6242888;22;19996;-74
2022/03/11 08:06:19;;;;;;;5.10;2.20;;;25.40;64.30;;;;;;6243208;22;20038;-75
2022/03/11 08:08:46;;;;;;;10.63;2.65;;;25.50;63.80;;;;;;6240964;23;20110;-75
2022/03/11 08:11:14;;;;;;;8.68;3.47;;;25.50;63.00;;;;;;6242711;23;20002;-75
2022/03/11 08:13:41;;;;;;;20.92;4.20;;;25.50;62.70;;;;;;6244107;22;20062;-76
2022/03/11 08:16:07;;;;;;;10.18;3.58;;;25.60;63.10;;;;;;6242303;22;20004;-75
2022/03/11 08:18:35;;;;;;;13.05;3.70;;;25.70;62.50;;;;;;6243449;22;20000;-75
2022/03/11 08:21:03;;;;;;;8.80;3.78;;;25.80;62.20;;;;;;6242599;22;20027;-74
2022/03/11 08:23:30;;;;;;;16.02;4.13;;;25.80;62.10;;;;;;6243086;22;20008;-75
2022/03/11 08:25:57;;;;;;;9.68;4.25;;;25.90;61.90;;;;;;6241556;23;20008;-76
2022/03/11 08:28:24;;;;;;;8.45;4.07;;;25.90;61.50;;;;;;6264930;22;20015;-76
2022/03/11 08:30:50;;;;;;;12.02;4.85;;;26.00;60.80;;;;;;6246871;22;20303;-76
2022/03/11 08:33:22;;;;;;;13.10;5.38;;;26.00;60.00;;;;;;6271624;22;20012;-76
2022/03/11 08:35:50;;;;;;;10.63;4.05;;;26.10;60.00;;;;;;6273496;22;20007;-74
2022/03/11 08:38:17;;;;;;;13.07;5.30;;;26.20;60.10;;;;;;6272662;22;20315;-74
2022/03/11 08:40:44;;;;;;;18.50;5.93;;;26.20;60.20;;;;;;6246614;22;20003;-74
2022/03/11 08:43:11;;;;;;;16.23;5.25;;;26.30;60.60;;;;;;6273333;22;20071;-73
2022/03/11 08:45:37;;;;;;;17.67;5.60;;;26.30;60.50;;;;;;6273359;22;20007;-76
2022/03/11 08:48:04;;;;;;;18.10;7.10;;;26.40;60.80;;;;;;6273791;22;19995;-75
2022/03/11 08:50:31;;;;;;;14.20;7.20;;;26.40;61.00;;;;;;6272591;22;20003;-75
2022/03/11 08:52:57;;;;;;;16.45;7.25;;;26.50;61.30;;;;;;6245697;22;20015;-74
2022/03/11 08:55:24;;;;;;;28.00;9.07;;;26.50;60.80;;;;;;6272755;22;19996;-74
2022/03/11 08:57:52;;;;;;;26.73;7.50;;;26.60;60.10;;;;;;6273728;22;19999;-74
2022/03/11 09:00:20;;;;;;;14.57;5.38;;;26.60;59.60;;;;;;6273165;22;20304;-75
2022/03/11 09:02:47;;;;;;;15.88;5.53;;;26.70;58.90;;;;;;6272655;22;20423;-76
2022/03/11 09:05:17;;;;;;;17.88;6.18;;;26.70;58.90;;;;;;6273170;22;20035;-75
2022/03/11 09:07:44;;;;;;;20.98;7.35;;;26.80;58.50;;;;;;6244857;22;20007;-75
2022/03/11 09:10:12;;;;;;;19.05;5.47;;;26.80;58.40;;;;;;6273711;22;20053;-75
2022/03/11 09:12:40;;;;;;;19.50;5.75;;;26.80;58.00;;;;;;6271877;22;20083;-75
2022/03/11 09:15:08;;;;;;;13.80;5.07;;;26.80;57.70;;;;;;6273867;22;20000;-75
2022/03/11 09:17:34;;;;;;;16.30;6.38;;;26.80;57.50;;;;;;6272771;22;20003;-75
2022/03/11 09:20:06;;;;;;;17.27;5.53;;;26.90;56.00;;;;;;6273037;22;20003;-75
2022/03/11 09:22:36;;;;;;;14.85;5.13;;;26.90;55.60;;;;;;6273787;22;20003;-76
2022/03/11 09:25:04;;;;;;;10.25;5.30;;;27.00;55.00;;;;;;6244904;22;20477;-76
2022/03/11 09:27:31;;;;;;;11.65;4.45;;;26.90;54.50;;;;;;6273188;22;20023;-76
2022/03/11 09:29:57;;;;;;;9.73;3.47;;;27.00;53.80;;;;;;6271938;22;19995;-76
2022/03/11 09:32:25;;;;;;;11.52;3.47;;;27.00;53.70;;;;;;6273664;22;20004;-75
2022/03/11 09:34:52;;;;;;;9.93;3.90;;;27.00;52.40;;;;;;6272461;22;20000;-75
2022/03/11 09:37:18;;;;;;;11.98;3.75;;;27.00;51.90;;;;;;6273008;22;20078;-75
2022/03/11 09:39:45;;;;;;;11.50;3.83;;;27.00;51.90;;;;;;6272735;22;20006;-76
2022/03/11 09:42:12;;;;;;;11.43;3.30;;;27.00;51.60;;;;;;6272701;22;20038;-75
2022/03/11 09:44:40;;;;;;;12.05;3.00;;;27.00;51.50;;;;;;6246307;22;20429;-75
2022/03/11 09:47:08;;;;;;;9.20;2.83;;;27.00;51.20;;;;;;6271964;22;20478;-73
2022/03/11 09:49:36;;;;;;;12.50;2.80;;;26.90;51.10;;;;;;6271941;22;20004;-75
2022/03/11 09:52:07;;;;;;;6.28;2.88;;;26.90;51.60;;;;;;6271505;22;20008;-73
2022/03/11 09:54:34;;;;;;;11.93;2.45;;;26.90;51.60;;;;;;6272839;22;20011;-74
2022/03/11 09:57:01;;;;;;;9.13;2.45;;;26.90;52.30;;;;;;6272259;22;20008;-75
2022/03/11 09:59:27;;;;;;;10.27;2.28;;;26.90;52.40;;;;;;6272297;22;20002;-74
2022/03/11 10:01:54;;;;;;;4.40;1.92;;;26.80;52.50;;;;;;6273435;22;19999;-75
2022/03/11 10:04:21;;;;;;;7.97;2.10;;;26.80;52.80;;;;;;6271819;22;20548;-74
2022/03/11 10:06:48;;;;;;;7.15;2.42;;;26.80;52.70;;;;;;6245675;22;20000;-76
2022/03/11 10:09:21;;;;;;;4.55;2.05;;;26.70;53.10;;;;;;6271687;22;20000;-75
2022/03/11 10:12:05;;;;;;;6.75;1.80;;;26.70;53.40;;;;;;6246185;22;20004;-75
2022/03/11 10:14:38;;;;;;;9.63;2.70;;;26.60;53.50;;;;;;6273149;22;20011;-74
2022/03/11 10:17:18;;;;;;;6.25;2.13;;;26.60;53.90;;;;;;6271843;22;20078;-74
2022/03/11 10:20:02;;;;;;;30.40;4.78;;;26.60;54.10;;;;;;6273017;22;20002;-73
2022/03/11 10:22:30;;;;;;;11.20;2.30;;;26.50;54.60;;;;;;6272267;22;20000;-73
2022/03/11 10:24:56;;;;;;;8.00;2.75;;;26.60;55.20;;;;;;6245587;22;20014;-73
2022/03/11 10:27:24;;;;;;;9.90;2.28;;;26.60;55.30;;;;;;6272601;22;20084;-74
2022/03/11 10:29:51;;;;;;;10.27;2.40;;;26.50;55.00;;;;;;6271228;22;20031;-76
2022/03/11 10:32:27;;;;;;;8.98;2.58;;;26.50;55.00;;;;;;6273621;22;20388;-75
2022/03/11 10:34:54;;;;;;;9.43;1.83;;;26.50;54.30;;;;;;6244307;22;20427;-74
2022/03/11 10:37:25;;;;;;;11.13;2.85;;;26.50;54.10;;;;;;6272891;22;20000;-75
2022/03/11 10:39:52;;;;;;;8.40;2.10;;;26.50;54.20;;;;;;6271845;22;20003;-74
2022/03/11 10:42:24;;;;;;;6.18;2.30;;;26.40;53.60;;;;;;6273057;22;20000;-77
2022/03/11 10:45:02;;;;;;;6.22;2.10;;;26.40;53.60;;;;;;6272705;22;20007;-74
2022/03/11 10:47:36;;;;;;;10.55;2.35;;;26.40;53.30;;;;;;6271612;22;19996;-74
2022/03/11 10:50:04;;;;;;;;;;;26.40;53.40;;;;;;6246356;22;20402;-75
2022/03/11 10:52:41;;;;;;;8.18;1.90;;;26.30;53.00;;;;;;6244722;22;19899;-76
2022/03/11 10:55:22;;;;;;;8.38;2.50;;;26.30;53.20;;;;;;6273125;22;19995;-75
2022/03/11 10:57:56;;;;;;;5.90;1.90;;;26.20;53.10;;;;;;6272520;22;20443;-73
2022/03/11 11:00:24;;;;;;;5.97;1.93;;;26.30;53.30;;;;;;6245711;22;20003;-74
2022/03/11 11:02:59;;;;;;;9.50;2.38;;;26.30;53.40;;;;;;6274843;22;20027;-77
2022/03/11 11:05:29;;;;;;;20.75;2.92;;;26.20;53.40;;;;;;6273800;22;20004;-76
2022/03/11 11:07:57;;;;;;;17.15;3.08;;;26.20;53.80;;;;;;6247636;22;20015;-76
2022/03/11 11:10:25;;;;;;;15.82;2.97;;;26.20;54.30;;;;;;6273780;22;20004;-75
2022/03/11 11:12:53;;;;;;;10.25;2.58;;;26.20;54.70;;;;;;6273286;22;20502;-76
2022/03/11 11:15:20;;;;;;;22.40;3.90;;;26.20;55.40;;;;;;6247614;22;20015;-74
2022/03/11 11:17:49;;;;;;;11.45;3.50;;;26.20;55.60;;;;;;6246009;22;20300;-75
2022/03/11 11:20:31;;;;;;;7.65;3.10;;;26.20;55.40;;;;;;6274532;22;19999;-74
2022/03/11 11:23:04;;;;;;;10.35;3.33;;;26.20;55.40;;;;;;6273135;22;20003;-75
2022/03/11 11:25:32;;;;;;;9.25;4.18;;;26.20;55.30;;;;;;6274818;22;20428;-75
2022/03/11 11:28:03;;;;;;;16.65;6.90;;;26.20;55.30;;;;;;6241398;23;20047;-74
2022/03/11 11:30:30;;;;;;;22.60;7.45;;;26.20;55.10;;;;;;6243179;22;19996;-76
2022/03/11 11:33:00;;;;;;;16.35;7.30;;;26.20;55.10;;;;;;6243921;22;20012;-77
2022/03/11 11:35:31;;;;;;;35.45;8.52;;;26.10;55.30;;;;;;6242983;22;20003;-76
2022/03/11 11:38:04;;;;;;;37.45;9.05;;;26.10;55.80;;;;;;6243935;22;20004;-78
2022/03/11 11:40:40;;;;;;;40.63;11.30;;;26.20;56.80;;;;;;6242607;22;20024;-75
2022/03/11 11:43:13;;;;;;;22.50;9.90;;;26.10;57.40;;;;;;6243582;22;20061;-77
2022/03/11 11:45:49;;;;;;;30.20;9.77;;;26.10;57.80;;;;;;6243973;22;20028;-75
2022/03/11 11:48:34;;;;;;;22.73;10.85;;;26.10;58.20;;;;;;6243177;22;20008;-76
2022/03/11 11:51:06;;;;;;;25.42;10.13;;;26.10;58.60;;;;;;6244807;22;20007;-76
2022/03/11 11:53:40;;;;;;;22.92;11.00;;;26.10;58.90;;;;;;6244880;22;20435;-76
2022/03/11 11:56:26;;;;;;;24.40;11.80;;;26.10;59.20;;;;;;6238415;23;20024;-76
2022/03/11 11:58:56;;;;;;;38.05;11.95;;;26.10;59.60;;;;;;6243651;22;19996;-77
2022/03/11 12:01:42;;;;;;;36.58;11.43;;;26.10;59.90;;;;;;6240717;23;20397;-78
2022/03/11 12:04:34;;;;;;;24.33;11.45;;;26.10;60.00;;;;;;6243972;22;19997;-75
2022/03/11 12:07:13;;;;;;;33.85;12.63;;;26.10;59.60;;;;;;6243015;22;20427;-75
2022/03/11 12:09:45;;;;;;;23.25;9.68;;;26.10;59.60;;;;;;6243043;22;20007;-76
2022/03/11 12:12:20;;;;;;;25.52;8.85;;;26.10;59.80;;;;;;6243689;22;20008;-75
2022/03/11 12:17:45;;;;;;;28.67;6.32;;;26.00;60.40;;;;;;6243447;22;20031;-76
2022/03/11 12:20:35;;;;;;;24.08;6.55;;;26.00;61.10;;;;;;6243178;22;20008;-74
2022/03/11 12:23:18;;;;;;;23.67;6.90;;;25.90;61.20;;;;;;6241330;22;20335;-76
2022/03/11 12:25:48;;;;;;;17.90;6.13;;;25.90;61.70;;;;;;6243957;22;20440;-75
2022/03/11 12:28:41;;;;;;;19.00;6.53;;;25.90;62.60;;;;;;6262752;22;20400;-75
2022/03/11 12:31:23;;;;;;;24.20;5.95;;;25.80;63.30;;;;;;6273230;22;19995;-77
2022/03/11 12:33:51;;;;;;;13.73;5.85;;;25.80;63.90;;;;;;6246414;22;20335;-74
2022/03/11 12:36:27;;;;;;;17.65;6.07;;;25.80;64.40;;;;;;6272987;22;19996;-77
2022/03/11 12:38:53;;;;;;;19.95;5.38;;;25.80;64.70;;;;;;6273750;22;20031;-77
2022/03/11 12:41:34;;;;;;;20.90;5.82;;;25.80;65.00;;;;;;6272768;22;20000;-74
2022/03/11 12:44:01;;;;;;;29.40;6.18;;;25.70;65.30;;;;;;6244857;22;20335;-75
2022/03/11 12:46:28;;;;;;;17.48;5.22;;;25.70;66.00;;;;;;6273952;22;20027;-75
2022/03/11 12:48:55;;;;;;;48.35;7.53;;;25.70;66.40;;;;;;6268994;22;20070;-77
2022/03/11 12:51:24;;;;;;;22.52;4.97;;;25.70;66.80;;;;;;6268787;22;20010;-74
2022/03/11 12:53:52;;;;;;;16.42;4.85;;;25.60;67.00;;;;;;6266671;22;20082;-71
2022/03/11 12:56:22;;;;;;;16.58;5.03;;;25.60;67.40;;;;;;6269837;22;20014;-75
2022/03/11 12:58:49;;;;;;;16.85;4.72;;;25.60;67.70;;;;;;6267722;22;20003;-74
2022/03/11 13:01:16;;;;;;;13.32;4.53;;;25.60;67.50;;;;;;6271089;22;20004;-75
2022/03/11 13:03:50;;;;;;;20.00;6.22;;;25.60;67.20;;;;;;6271608;22;20408;-74
2022/03/11 13:06:17;;;;;;;17.90;9.45;;;25.60;67.10;;;;;;6271996;22;20007;-71
2022/03/11 13:08:44;;;;;;;22.33;7.72;;;25.60;67.30;;;;;;6272291;22;20003;-72
2022/03/11 13:11:14;;;;;;;23.75;8.95;;;25.50;67.20;;;;;;6271630;22;20002;-72
2022/03/11 13:13:42;;;;;;;11.45;5.85;;;25.50;67.20;;;;;;6272136;22;20011;-74
2022/03/11 13:16:09;;;;;;;8.55;4.35;;;25.60;67.10;;;;;;6270882;22;20446;-74
2022/03/11 13:18:38;;;;;;;8.85;4.22;;;25.60;66.60;;;;;;6272225;22;20012;-73
2022/03/11 13:21:08;;;;;;;9.93;3.85;;;25.60;67.00;;;;;;6271163;22;20003;-74
2022/03/11 13:23:40;;;;;;;6.15;2.88;;;25.60;67.10;;;;;;6270651;22;20339;-75
2022/03/11 13:26:09;;;;;;;7.18;3.55;;;25.70;68.30;;;;;;6272141;22;19999;-74
2022/03/11 13:28:41;;;;;;;4.03;2.13;;;25.80;68.40;;;;;;6271606;22;20011;-74
2022/03/11 13:31:13;;;;;;;21.35;3.53;;;25.80;68.30;;;;;;6273620;22;20039;-73
2022/03/11 13:33:41;;;;;;;12.10;6.50;;;25.80;68.00;;;;;;6244734;22;20008;-74
2022/03/11 13:36:11;;;;;;;30.73;25.85;;;25.90;68.00;;;;;;6273497;22;19999;-74
2022/03/11 13:39:00;;;;;;;19.25;16.00;;;26.00;67.90;;;;;;6272079;22;20004;-75
2022/03/11 13:41:33;;;;;;;14.25;7.95;;;26.00;67.80;;;;;;6271981;22;20061;-75
2022/03/11 13:44:39;;;;;;;9.15;6.32;;;26.10;68.00;;;;;;6273355;22;20007;-75
2022/03/11 13:47:17;;;;;;;9.50;3.90;;;26.20;68.30;;;;;;6272180;22;19996;-74
2022/03/11 13:49:51;;;;;;;8.70;3.42;;;26.20;68.20;;;;;;6272689;22;20026;-77
2022/03/11 13:52:21;;;;;;;6.55;2.08;;;26.30;68.20;;;;;;6273344;22;19999;-73
2022/03/11 13:55:03;;;;;;;6.25;1.90;;;26.30;68.10;;;;;;6272284;22;20003;-74
2022/03/11 13:57:34;;;;;;;5.85;1.75;;;26.40;68.00;;;;;;6273456;22;20028;-74
2022/03/11 14:00:24;;;;;;;3.13;1.35;;;26.40;67.80;;;;;;6244476;22;20004;-75
2022/03/11 14:02:52;;;;;;;1.95;1.00;;;26.50;67.70;;;;;;6272516;22;20423;-74
2022/03/11 14:05:23;;;;;;;4.68;1.00;;;26.50;67.50;;;;;;6245989;22;20061;-74
2022/03/11 14:08:05;;;;;;;2.53;0.80;;;26.50;67.50;;;;;;6271745;22;20023;-76
2022/03/11 14:10:37;;;;;;;3.47;1.23;;;26.60;68.10;;;;;;6245695;22;20319;-75
2022/03/11 14:13:09;;;;;;;4.75;1.23;;;26.60;67.40;;;;;;6244554;22;20015;-73
2022/03/11 14:15:44;;;;;;;2.83;1.00;;;26.60;67.40;;;;;;6273232;22;19999;-75
2022/03/11 14:18:13;;;;;;;2.45;1.63;;;26.60;67.40;;;;;;6272707;22;20435;-75
2022/03/11 14:20:41;;;;;;;4.65;1.35;;;26.60;67.20;;;;;;6271850;22;20747;-75
2022/03/11 14:23:08;;;;;;;3.60;1.15;;;26.60;67.10;;;;;;6273079;22;20069;-75
2022/03/11 14:25:36;;;;;;;2.80;1.23;;;26.60;67.10;;;;;;6272042;22;20470;-75
2022/03/11 14:28:05;;;;;;;5.72;1.25;;;26.60;67.10;;;;;;6272635;22;20353;-75
2022/03/11 14:30:32;;;;;;;4.93;1.25;;;26.60;67.30;;;;;;6272080;22;20621;-74
2022/03/11 14:32:59;;;;;;;4.40;1.13;;;26.60;67.90;;;;;;6272310;22;20011;-77
2022/03/11 14:35:26;;;;;;;6.30;1.15;;;26.60;68.10;;;;;;6273630;22;20381;-75
2022/03/11 14:37:52;;;;;;;3.90;0.60;;;26.60;68.00;;;;;;6274177;22;20459;-72
2022/03/11 14:40:19;;;;;;;3.25;0.95;;;26.60;67.30;;;;;;6274785;22;20372;-76
2022/03/11 14:42:47;;;;;;;11.23;1.00;;;26.70;67.10;;;;;;6273591;22;20051;-76
2022/03/11 14:45:13;;;;;;;10.00;1.20;;;26.80;67.20;;;;;;6275212;22;20000;-75
2022/03/11 14:47:42;;;;;;;4.78;1.13;;;26.70;67.00;;;;;;6272506;22;20000;-75
2022/03/11 14:50:14;;;;;;;2.55;0.95;;;26.70;67.00;;;;;;6222173;22;20014;-79
2022/03/11 14:52:43;;;;;;;5.88;0.90;;;26.70;66.90;;;;;;6273438;22;20461;-76
2022/03/11 14:55:11;;;;;;;2.55;1.23;;;26.70;66.50;;;;;;6244466;22;20348;-79
2022/03/11 14:57:40;;;;;;;10.05;1.50;;;26.70;66.00;;;;;;6247421;22;20010;-72
2022/03/11 15:00:09;;;;;;;4.40;1.48;;;26.70;65.90;;;;;;6273471;22;20151;-79
2022/03/11 15:02:36;;;;;;;17.63;10.27;;;26.70;65.90;;;;;;6274440;22;20026;-72
2022/03/11 15:05:04;;;;;;;14.68;13.10;;;26.70;67.40;;;;;;6272478;22;20026;-79
2022/03/11 15:07:31;;;;;;;8.30;7.47;;;26.60;67.20;;;;;;6274763;22;20007;-74
2022/03/11 15:09:58;;;;;;;5.82;3.90;;;26.60;67.00;;;;;;6273897;22;19999;-74
2022/03/11 15:12:31;;;;;;;5.05;2.50;;;26.60;66.80;;;;;;6248392;22;20012;-74
2022/03/11 15:14:59;;;;;;;2.67;1.90;;;26.60;66.90;;;;;;6274906;22;20415;-75
2022/03/11 15:17:26;;;;;;;3.40;1.70;;;26.60;66.50;;;;;;6246176;22;20004;-75
2022/03/11 15:19:53;;;;;;;1.35;0.90;;;26.60;65.90;;;;;;6247576;22;20427;-76
2022/03/11 15:22:19;;;;;;;2.67;0.85;;;26.60;66.10;;;;;;6273333;22;20087;-74
2022/03/11 15:24:46;;;;;;;1.83;0.73;;;26.60;66.10;;;;;;6274572;22;20010;-74
2022/03/11 15:27:13;;;;;;;4.70;1.20;;;26.60;66.00;;;;;;6273945;22;20000;-74
2022/03/11 15:29:40;;;;;;;0.95;0.65;;;26.60;66.10;;;;;;6245826;22;20094;-75
2022/03/11 15:32:06;;;;;;;1.70;0.77;;;26.60;66.00;;;;;;6247357;22;20108;-74
2022/03/11 15:34:33;;;;;;;2.63;0.82;;;26.60;66.10;;;;;;6273369;22;20078;-74
2022/03/11 15:36:59;;;;;;;0.77;0.60;;;26.60;66.20;;;;;;6274510;22;19996;-76
2022/03/11 15:39:26;;;;;;;1.85;0.70;;;26.60;66.40;;;;;;6245814;22;20018;-77
2022/03/11 15:41:52;;;;;;;3.75;2.05;;;26.60;66.50;;;;;;6275723;22;20003;-74
2022/03/11 15:44:19;;;;;;;1.63;0.68;;;26.60;66.70;;;;;;6273220;22;20004;-74
2022/03/11 15:46:46;;;;;;;0.60;0.60;;;26.60;66.30;;;;;;6274058;22;20039;-76
2022/03/11 15:49:12;;;;;;;1.73;1.02;;;26.60;66.20;;;;;;6274221;22;20004;-74
2022/03/11 15:51:39;;;;;;;1.15;0.98;;;26.60;66.00;;;;;;6273561;22;20000;-74
2022/03/11 15:54:08;;;;;;;0.95;0.93;;;26.60;65.70;;;;;;6246363;22;20030;-77
2022/03/11 15:56:38;;;;;;;1.20;0.68;;;26.60;65.30;;;;;;6272966;22;20068;-74
2022/03/11 15:59:07;;;;;;;1.30;0.70;;;26.60;65.20;;;;;;6247117;22;20063;-75
2022/03/11 16:01:35;;;;;;;1.77;0.50;;;26.60;65.20;;;;;;6245831;22;20008;-74
2022/03/11 16:04:02;;;;;;;1.13;0.73;;;26.60;65.10;;;;;;6247243;22;20434;-76
2022/03/11 16:06:28;;;;;;;10.32;1.30;;;26.60;65.00;;;;;;6272892;22;20004;-76
2022/03/11 16:08:55;;;;;;;1.90;0.70;;;26.60;64.80;;;;;;6273300;22;20028;-75
2022/03/11 16:11:24;;;;;;;7.47;0.77;;;26.60;64.40;;;;;;6247198;22;20039;-77
2022/03/11 16:13:51;;;;;;;1.70;0.70;;;26.60;64.40;;;;;;6272402;22;20358;-76
2022/03/11 16:16:17;;;;;;;5.97;0.68;;;26.60;64.40;;;;;;6246143;22;20007;-76